Time;durP1;ratioP1;P1;durP2;ratioP2;P2;SDS_P1;SDS_P2;PMS_P1;PMS_P2;Temp;Humidity;BMP_temperature;BMP_pressure;BME280_temperature;BME280_humidity;BME280_pressure;Samples;Min_cycle;Max_cycle;Signal;HPM_P1;HPM_P2
2022/06/20 00:00:40;;;;;;;;;;;;;;;27.10;47.90;99006.59;2077260;28;19913;-46
2022/06/20 00:01:41;;;;;;;;;;;;;;;27.11;48.07;99009.09;2069787;28;19915;-46
2022/06/20 00:02:42;;;;;;;;;;;;;;;27.10;47.81;99001.06;2075943;28;20181;-46
2022/06/20 00:03:45;;;;;;;;;;;;;;;27.10;47.97;98995.53;2077824;28;19908;-46
2022/06/20 00:04:46;;;;;;;;;;;;;;;27.10;47.86;98992.75;2075779;28;19920;-45
2022/06/20 00:05:47;;;;;;;;;;;;;;;27.10;47.88;98998.28;2077048;28;20441;-47
2022/06/20 00:06:47;;;;;;;;;;;;;;;27.10;47.81;98995.53;2076108;28;19916;-47
2022/06/20 00:07:48;;;;;;;;;;;;;;;27.09;48.05;98999.34;2073497;28;19923;-46
2022/06/20 00:08:49;;;;;;;;;;;;;;;27.10;47.89;99001.06;2077632;28;20022;-45
2022/06/20 00:09:50;;;;;;;;;;;;;;;27.09;47.79;99011.25;2071165;28;20030;-46
2022/06/20 00:10:50;;;;;;;;;;;;;;;27.10;47.79;99001.06;2071033;28;19925;-46
2022/06/20 00:11:51;;;;;;;;;;;;;;;27.10;48.13;99003.81;2069452;28;20012;-46
2022/06/20 00:12:52;;;;;;;;;;;;;;;27.09;48.00;99005.72;2074477;28;19917;-47
2022/06/20 00:13:54;;;;;;;;;;;;;;;27.10;47.99;99012.13;2077918;28;19916;-47
2022/06/20 00:14:57;;;;;;;;;;;;;;;27.09;47.82;99005.72;2082419;28;19947;-46
2022/06/20 00:16:00;;;;;;;;;;;;;;;27.10;48.15;99009.34;2080750;28;19924;-49
2022/06/20 00:17:01;;;;;;;;;;;;;;;27.09;48.14;99004.88;2085174;28;19924;-46
2022/06/20 00:18:04;;;;;;;;;;;;;;;27.09;48.03;99010.41;2082073;28;19933;-46
2022/06/20 00:19:04;;;;;;;;;;;;;;;27.09;48.07;99013.19;2070553;28;19913;-47
2022/06/20 00:20:04;;;;;;;;;;;;;;;27.07;47.93;99013.44;2067815;28;20170;-47
2022/06/20 00:21:05;;;;;;;;;;;;;;;27.09;48.26;99010.41;2078248;28;19919;-46
2022/06/20 00:22:05;;;;;;;;;;;;;;;27.09;48.12;99004.88;2079312;28;19909;-46
2022/06/20 00:23:06;;;;;;;;;;;;;;;27.08;48.17;99014.25;2079310;28;19924;-46
2022/06/20 00:24:07;;;;;;;;;;;;;;;27.09;48.03;99015.94;2076361;28;19909;-49
2022/06/20 00:25:08;;;;;;;;;;;;;;;27.08;48.20;99008.72;2079121;28;20265;-46
2022/06/20 00:26:08;;;;;;;;;;;;;;;27.09;48.28;99018.72;2082498;28;20026;-47
2022/06/20 00:27:09;;;;;;;;;;;;;;;27.08;48.20;99019.78;2075903;28;20179;-48
2022/06/20 00:28:10;;;;;;;;;;;;;;;27.08;48.08;99011.50;2080279;28;20059;-46
2022/06/20 00:29:11;;;;;;;;;;;;;;;27.08;48.06;99014.25;2080215;28;19916;-46
2022/06/20 00:30:12;;;;;;;;;;;;;;;27.08;48.26;99017.88;2073412;28;19916;-48
2022/06/20 00:31:13;;;;;;;;;;;;;;;27.08;48.37;99019.78;2078373;28;19965;-47
2022/06/20 00:32:13;;;;;;;;;;;;;;;27.07;48.27;99018.97;2079683;28;19963;-46
2022/06/20 00:33:14;;;;;;;;;;;;;;;27.07;48.20;99024.50;2078743;28;20365;-47
2022/06/20 00:34:14;;;;;;;;;;;;;;;27.07;48.31;99023.63;2081384;28;20503;-46
2022/06/20 00:35:15;;;;;;;;;;;;;;;27.07;48.30;99026.38;2072024;28;19920;-49
2022/06/20 00:36:16;;;;;;;;;;;;;;;27.07;48.42;99023.63;2078654;28;20595;-49
2022/06/20 00:37:18;;;;;;;;;;;;;;;27.07;48.16;99018.97;2079432;28;19926;-47
2022/06/20 00:38:19;;;;;;;;;;;;;;;27.07;48.28;99018.09;2074112;28;20322;-49
2022/06/20 00:39:20;;;;;;;;;;;;;;;27.07;48.48;99024.50;2080406;28;19939;-46
2022/06/20 00:40:21;;;;;;;;;;;;;;;27.06;48.14;99025.53;2071997;28;19920;-46
2022/06/20 00:41:30;;;;;;;;;;;;;;;27.07;48.43;99032.78;2076045;28;19923;-46
2022/06/20 00:42:31;;;;;;;;;;;;;;;27.07;48.32;99029.16;2080527;28;20356;-45
2022/06/20 00:43:42;;;;;;;;;;;;;;;27.08;48.51;99025.31;2075020;28;19920;-46
2022/06/20 00:44:47;;;;;;;;;;;;;;;27.06;48.47;99028.31;2078085;28;19984;-46
2022/06/20 00:45:49;;;;;;;;;;;;;;;27.06;48.36;99033.84;2071038;28;20524;-46
2022/06/20 00:46:51;;;;;;;;;;;;;;;27.08;48.41;99039.16;2076466;28;19943;-47
2022/06/20 00:47:57;;;;;;;;;;;;;;;27.07;48.48;99034.69;2077337;28;19928;-46
2022/06/20 00:49:15;;;;;;;;;;;;;;;27.06;48.29;99038.53;2076945;28;19924;-46
2022/06/20 00:50:25;;;;;;;;;;;;;;;27.06;48.36;99039.38;2070657;28;20578;-50
2022/06/20 00:51:34;;;;;;;;;;;;;;;27.06;48.49;99033.84;2068586;28;20012;-48
2022/06/20 00:52:43;;;;;;;;;;;;;;;27.06;48.35;99039.38;2074223;28;19916;-46
2022/06/20 00:53:50;;;;;;;;;;;;;;;27.06;48.52;99033.00;2075153;28;20376;-46
2022/06/20 00:55:06;;;;;;;;;;;;;;;27.06;48.53;99039.38;2074607;28;19956;-48
2022/06/20 00:56:13;;;;;;;;;;;;;;;27.07;48.59;99045.75;2077383;28;19923;-47
2022/06/20 00:57:13;;;;;;;;;;;;;;;27.06;48.42;99052.38;2072692;28;19939;-46
2022/06/20 00:58:13;;;;;;;;;;;;;;;27.05;48.59;99046.00;2077136;28;19908;-45
2022/06/20 00:59:16;;;;;;;;;;;;;;;27.05;48.54;99046.00;2078091;28;20196;-46
2022/06/20 01:00:22;;;;;;;;;;;;;;;27.06;48.37;99055.13;2077564;28;20234;-46
2022/06/20 01:01:27;;;;;;;;;;;;;;;27.05;48.38;99058.97;2076294;28;19990;-48
2022/06/20 01:02:32;;;;;;;;;;;;;;;27.04;48.31;99051.75;2072446;28;19956;-47
2022/06/20 01:03:34;;;;;;;;;;;;;;;27.05;48.53;99054.28;2076575;28;19920;-46
2022/06/20 01:04:46;;;;;;;;;;;;;;;27.04;48.39;99048.97;2076477;28;19917;-46
2022/06/20 01:05:49;;;;;;;;;;;;;;;27.04;48.65;99046.22;2077252;28;20838;-46
2022/06/20 01:06:53;;;;;;;;;;;;;;;27.04;48.68;99046.22;2074500;28;19917;-47
2022/06/20 01:08:00;;;;;;;;;;;;;;;27.04;48.45;99051.75;2074369;28;19917;-46
2022/06/20 01:09:05;;;;;;;;;;;;;;;27.03;48.39;99052.81;2076015;28;19923;-47
2022/06/20 01:10:05;;;;;;;;;;;;;;;27.04;48.44;99052.59;2073594;28;19916;-46
2022/06/20 01:11:11;;;;;;;;;;;;;;;27.05;48.59;99056.22;2080801;28;19961;-45
2022/06/20 01:12:16;;;;;;;;;;;;;;;27.05;48.74;99061.75;2075204;28;19967;-45
2022/06/20 01:13:18;;;;;;;;;;;;;;;27.03;48.52;99061.97;2079250;28;19920;-46
2022/06/20 01:14:23;;;;;;;;;;;;;;;27.04;48.40;99062.81;2079180;28;20136;-46
2022/06/20 01:15:25;;;;;;;;;;;;;;;27.04;48.54;99068.34;2074589;28;19919;-46
2022/06/20 01:16:31;;;;;;;;;;;;;;;27.04;48.37;99068.34;2077854;28;20219;-46
2022/06/20 01:17:35;;;;;;;;;;;;;;;27.04;48.42;99065.56;2078897;28;20350;-47
2022/06/20 01:18:35;;;;;;;;;;;;;;;27.04;48.62;99062.81;2076086;28;20035;-45
2022/06/20 01:19:38;;;;;;;;;;;;;;;27.04;48.47;99068.34;2075350;28;19932;-45
2022/06/20 01:20:39;;;;;;;;;;;;;;;27.04;48.80;99063.66;2075420;28;20001;-46
2022/06/20 01:21:39;;;;;;;;;;;;;;;27.04;48.65;99068.34;2075538;28;19986;-46
2022/06/20 01:23:01;;;;;;;;;;;;;;;27.04;48.70;99068.34;2075991;28;20030;-45
2022/06/20 01:24:11;;;;;;;;;;;;;;;27.04;48.77;99060.03;2072061;28;20043;-46
2022/06/20 01:25:11;;;;;;;;;;;;;;;27.03;48.56;99061.97;2084912;28;19917;-46
2022/06/20 01:26:14;;;;;;;;;;;;;;;27.03;48.60;99070.25;2076852;28;19917;-46
2022/06/20 01:27:17;;;;;;;;;;;;;;;27.04;48.75;99073.88;2078734;28;20640;-46
2022/06/20 01:28:21;;;;;;;;;;;;;;;27.03;48.75;99072.19;2076168;28;19908;-46
2022/06/20 01:29:21;;;;;;;;;;;;;;;27.03;48.81;99069.41;2075886;28;19916;-47
2022/06/20 01:30:24;;;;;;;;;;;;;;;27.03;48.76;99066.66;2076651;28;20091;-46
2022/06/20 01:31:26;;;;;;;;;;;;;;;27.03;48.77;99067.50;2079755;28;19913;-49
2022/06/20 01:32:28;;;;;;;;;;;;;;;27.03;48.73;99066.66;2079496;28;19909;-47
2022/06/20 01:33:30;;;;;;;;;;;;;;;27.03;48.79;99061.13;2077225;28;19917;-46
2022/06/20 01:34:31;;;;;;;;;;;;;;;27.02;48.52;99070.47;2071757;28;20008;-46
2022/06/20 01:38:14;;;;;;;;;;;;;;;27.03;48.67;99066.66;2076723;28;19909;-46
2022/06/20 01:39:16;;;;;;;;;;;;;;;27.02;48.76;99071.34;2080775;28;20234;-48
2022/06/20 01:40:17;;;;;;;;;;;;;;;27.02;48.74;99076.00;2068996;28;19975;-46
2022/06/20 01:42:38;;;;;;;;;;;;;;;27.01;48.60;99075.16;2075103;28;20371;-45
2022/06/20 01:43:38;;;;;;;;;;;;;;;27.01;48.80;99071.56;2077985;28;19939;-46
2022/06/20 01:44:41;;;;;;;;;;;;;;;27.00;48.92;99067.97;2071942;28;20285;-49
2022/06/20 01:45:59;;;;;;;;;;;;;;;27.00;48.69;99067.97;2080408;28;19908;-46
2022/06/20 01:46:59;;;;;;;;;;;;;;;27.02;48.69;99070.47;2077184;28;19917;-47
2022/06/20 01:48:05;;;;;;;;;;;;;;;27.01;48.93;99075.16;2080102;28;19947;-47
2022/06/20 01:49:08;;;;;;;;;;;;;;;27.00;48.71;99076.25;2071799;28;19925;-46
2022/06/20 01:50:09;;;;;;;;;;;;;;;27.00;48.77;99076.25;2081525;28;19958;-46
2022/06/20 01:51:16;;;;;;;;;;;;;;;27.01;48.98;99079.84;2079514;28;19916;-46
2022/06/20 01:52:28;;;;;;;;;;;;;;;27.00;48.76;99080.91;2064678;28;19921;-46
2022/06/20 01:53:31;;;;;;;;;;;;;;;27.01;48.93;99074.31;2073538;28;19916;-45
2022/06/20 01:54:34;;;;;;;;;;;;;;;27.00;48.92;99069.84;2076560;28;19917;-46
2022/06/20 01:55:34;;;;;;;;;;;;;;;27.01;48.99;99074.31;2076536;28;19917;-46
2022/06/20 01:56:35;;;;;;;;;;;;;;;27.00;48.99;99078.16;2074672;28;19927;-46
2022/06/20 01:57:37;;;;;;;;;;;;;;;27.01;48.79;99079.84;2075339;28;19916;-46
2022/06/20 01:58:44;;;;;;;;;;;;;;;27.01;48.93;99079.84;2077044;28;19923;-46
2022/06/20 01:59:56;;;;;;;;;;;;;;;27.00;48.75;99073.50;2073795;28;20643;-46
2022/06/20 02:00:57;;;;;;;;;;;;;;;27.00;48.99;99076.25;2075532;28;20361;-47
2022/06/20 02:01:58;;;;;;;;;;;;;;;27.00;49.06;99079.03;2077043;28;19935;-47
2022/06/20 02:03:00;;;;;;;;;;;;;;;27.01;48.80;99074.31;2075244;28;20062;-46
2022/06/20 02:04:03;;;;;;;;;;;;;;;27.00;48.88;99080.91;2075945;28;19917;-48
2022/06/20 02:05:06;;;;;;;;;;;;;;;27.00;49.09;99072.63;2077535;28;19917;-46
2022/06/20 02:06:08;;;;;;;;;;;;;;;27.00;49.04;99075.38;2079595;28;19909;-46
2022/06/20 02:07:09;;;;;;;;;;;;;;;27.00;48.78;99080.91;2083172;28;19916;-46
2022/06/20 02:08:10;;;;;;;;;;;;;;;27.00;49.02;99078.16;2076529;28;19909;-47
2022/06/20 02:09:13;;;;;;;;;;;;;;;27.00;48.92;99072.63;2076117;28;19917;-46
2022/06/20 02:10:20;;;;;;;;;;;;;;;27.00;48.95;99078.16;2077182;28;19951;-46
2022/06/20 02:11:34;;;;;;;;;;;;;;;27.00;49.02;99078.16;2074320;28;20180;-48
2022/06/20 02:12:36;;;;;;;;;;;;;;;27.00;48.88;99075.38;2071386;28;19917;-46
2022/06/20 02:13:43;;;;;;;;;;;;;;;26.99;48.77;99079.22;2070813;28;20572;-46
2022/06/20 02:14:46;;;;;;;;;;;;;;;26.99;48.91;99082.84;2075420;28;19940;-46
2022/06/20 02:15:49;;;;;;;;;;;;;;;26.98;48.77;99074.78;2077273;28;19920;-46
2022/06/20 02:16:54;;;;;;;;;;;;;;;26.98;49.08;99070.09;2075998;28;19979;-45
2022/06/20 02:17:55;;;;;;;;;;;;;;;26.98;48.96;99072.03;2070765;28;19966;-46
2022/06/20 02:18:59;;;;;;;;;;;;;;;26.98;48.84;99069.25;2074651;28;19924;-46
2022/06/20 02:20:02;;;;;;;;;;;;;;;26.98;49.08;99074.78;2081226;28;19924;-47
2022/06/20 02:21:05;;;;;;;;;;;;;;;26.97;48.72;99073.06;2076024;28;19944;-46
2022/06/20 02:22:07;;;;;;;;;;;;;;;26.97;49.05;99078.59;2072389;28;20410;-47
2022/06/20 02:23:07;;;;;;;;;;;;;;;26.97;49.00;99079.44;2071723;28;20058;-46
2022/06/20 02:24:11;;;;;;;;;;;;;;;26.96;49.00;99072.25;2076375;28;19917;-47
2022/06/20 02:25:14;;;;;;;;;;;;;;;26.98;49.22;99074.78;2072126;28;19940;-46
2022/06/20 02:26:16;;;;;;;;;;;;;;;26.97;49.21;99073.06;2075843;28;19923;-46
2022/06/20 02:27:23;;;;;;;;;;;;;;;26.97;49.02;99070.31;2077110;28;19916;-47
2022/06/20 02:28:27;;;;;;;;;;;;;;;26.97;49.09;99067.53;2070312;28;20691;-46
2022/06/20 02:29:29;;;;;;;;;;;;;;;26.97;49.26;99076.69;2068263;28;19924;-46
2022/06/20 02:30:29;;;;;;;;;;;;;;;26.96;49.04;99071.41;2074818;28;19921;-47
2022/06/20 02:31:30;;;;;;;;;;;;;;;26.96;49.08;99063.09;2072395;28;20745;-49
2022/06/20 02:32:36;;;;;;;;;;;;;;;26.97;49.19;99067.53;2075942;28;19917;-46
2022/06/20 02:33:37;;;;;;;;;;;;;;;26.96;49.01;99066.72;2057729;28;20302;-48
2022/06/20 02:34:38;;;;;;;;;;;;;;;26.97;49.08;99062.00;2057941;28;19910;-46
2022/06/20 02:35:39;;;;;;;;;;;;;;;26.96;49.13;99057.56;2077444;28;19921;-47
2022/06/20 02:36:39;;;;;;;;;;;;;;;26.97;49.29;99062.00;2071976;28;20333;-46
2022/06/20 02:37:40;;;;;;;;;;;;;;;26.96;48.97;99066.72;2075874;28;19971;-46
2022/06/20 02:38:40;;;;;;;;;;;;;;;26.97;49.28;99062.00;2076577;28;20164;-46
2022/06/20 02:39:42;;;;;;;;;;;;;;;26.96;49.23;99057.56;2072242;28;19917;-46
2022/06/20 02:40:42;;;;;;;;;;;;;;;26.96;49.26;99060.34;2075866;28;19924;-46
2022/06/20 02:41:44;;;;;;;;;;;;;;;26.96;49.04;99055.66;2076525;28;19909;-46
2022/06/20 02:42:59;;;;;;;;;;;;;;;26.96;49.07;99058.41;2075181;28;19982;-47
2022/06/20 02:44:05;;;;;;;;;;;;;;;26.97;49.25;99056.47;2075356;28;20290;-47
2022/06/20 02:45:06;;;;;;;;;;;;;;;26.94;48.94;99058.63;2077564;28;19924;-46
2022/06/20 02:46:13;;;;;;;;;;;;;;;26.97;49.08;99056.47;2074624;28;20107;-47
2022/06/20 02:47:14;;;;;;;;;;;;;;;26.97;49.05;99059.25;2076391;28;20326;-49
2022/06/20 02:48:15;;;;;;;;;;;;;;;26.96;49.01;99057.56;2075081;28;19924;-46
2022/06/20 02:49:21;;;;;;;;;;;;;;;26.97;48.99;99062.00;2075534;28;19935;-46
2022/06/20 02:50:23;;;;;;;;;;;;;;;26.96;49.29;99060.34;2069721;28;20264;-46
2022/06/20 02:51:26;;;;;;;;;;;;;;;26.96;49.02;99060.34;2077397;28;20334;-47
2022/06/20 02:52:31;;;;;;;;;;;;;;;26.94;49.24;99057.78;2078475;28;19960;-46
2022/06/20 02:53:38;;;;;;;;;;;;;;;26.95;49.20;99059.50;2085921;28;19923;-46
2022/06/20 02:54:40;;;;;;;;;;;;;;;26.94;49.23;99061.38;2078115;28;20023;-47
2022/06/20 02:55:40;;;;;;;;;;;;;;;26.95;49.32;99059.50;2076335;28;19982;-48
2022/06/20 02:56:50;;;;;;;;;;;;;;;26.94;49.29;99064.16;2078553;28;19971;-46
2022/06/20 02:57:53;;;;;;;;;;;;;;;26.94;49.23;99063.31;2072498;28;19920;-47
2022/06/20 02:58:57;;;;;;;;;;;;;;;26.94;49.24;99061.38;2070498;28;20023;-47
2022/06/20 02:59:59;;;;;;;;;;;;;;;26.94;49.15;99069.69;2078233;28;20167;-46
2022/06/20 03:00:59;;;;;;;;;;;;;;;26.93;49.27;99061.63;2077353;28;20036;-48
2022/06/20 03:02:01;;;;;;;;;;;;;;;26.93;49.09;99062.47;2076484;28;19913;-48
2022/06/20 03:03:06;;;;;;;;;;;;;;;26.93;49.32;99059.72;2071184;28;19932;-46
2022/06/20 03:04:07;;;;;;;;;;;;;;;26.93;49.41;99068.00;2077095;28;19913;-46
2022/06/20 03:05:08;;;;;;;;;;;;;;;26.92;49.18;99066.31;2076560;28;19959;-47
2022/06/20 03:06:11;;;;;;;;;;;;;;;26.93;49.33;99067.16;2069470;28;19956;-47
2022/06/20 03:07:16;;;;;;;;;;;;;;;26.92;49.39;99066.31;2070255;28;19905;-46
2022/06/20 03:08:16;;;;;;;;;;;;;;;26.92;49.10;99071.84;2077693;28;19974;-47
2022/06/20 03:09:21;;;;;;;;;;;;;;;26.92;49.40;99071.84;2079487;28;20031;-46
2022/06/20 03:10:35;;;;;;;;;;;;;;;26.92;49.43;99077.38;2075807;28;19966;-46
2022/06/20 03:11:37;;;;;;;;;;;;;;;26.92;49.14;99076.50;2076725;28;19916;-46
2022/06/20 03:12:37;;;;;;;;;;;;;;;26.92;49.38;99069.09;2077783;28;19912;-45
2022/06/20 03:13:39;;;;;;;;;;;;;;;26.92;49.34;99065.47;2077851;28;19916;-46
2022/06/20 03:14:44;;;;;;;;;;;;;;;26.93;49.22;99072.69;2077581;28;19913;-46
2022/06/20 03:15:46;;;;;;;;;;;;;;;26.93;49.26;99069.94;2076680;28;19939;-48
2022/06/20 03:16:46;;;;;;;;;;;;;;;26.93;49.43;99072.69;2079129;28;19916;-46
2022/06/20 03:17:48;;;;;;;;;;;;;;;26.93;49.53;99073.53;2078262;28;19924;-47
2022/06/20 03:18:49;;;;;;;;;;;;;;;26.92;49.48;99065.47;2078113;28;19912;-49
2022/06/20 03:19:58;;;;;;;;;;;;;;;26.91;49.26;99061.84;2078598;28;20008;-48
2022/06/20 03:20:59;;;;;;;;;;;;;;;26.92;49.29;99071.84;2078611;28;19916;-46
2022/06/20 03:22:01;;;;;;;;;;;;;;;26.93;49.45;99078.22;2074783;28;19917;-49
2022/06/20 03:23:07;;;;;;;;;;;;;;;26.92;49.48;99082.91;2073852;28;19913;-46
2022/06/20 03:24:12;;;;;;;;;;;;;;;26.92;49.33;99080.16;2070334;28;19920;-46
2022/06/20 03:25:14;;;;;;;;;;;;;;;26.92;49.34;99082.91;2075767;28;20268;-47
2022/06/20 03:26:17;;;;;;;;;;;;;;;26.92;49.19;99082.91;2073109;28;19988;-46
2022/06/20 03:27:25;;;;;;;;;;;;;;;26.92;49.61;99093.97;2076324;28;19916;-47
2022/06/20 03:28:28;;;;;;;;;;;;;;;26.92;49.25;99082.91;2076117;28;20164;-47
2022/06/20 03:29:28;;;;;;;;;;;;;;;26.91;49.28;99092.28;2078462;28;19912;-49
2022/06/20 03:30:35;;;;;;;;;;;;;;;26.91;49.53;99083.97;2078361;28;19927;-49
2022/06/20 03:31:35;;;;;;;;;;;;;;;26.92;49.39;99099.50;2078101;28;19917;-46
2022/06/20 03:32:36;;;;;;;;;;;;;;;26.92;49.26;99096.75;2078398;28;19940;-48
2022/06/20 03:33:36;;;;;;;;;;;;;;;26.92;49.25;99096.75;2077570;28;19917;-46
2022/06/20 03:34:37;;;;;;;;;;;;;;;26.91;49.38;99099.72;2077868;28;19963;-49
2022/06/20 03:35:38;;;;;;;;;;;;;;;26.91;49.38;99094.19;2077159;28;19923;-46
2022/06/20 03:36:40;;;;;;;;;;;;;;;26.91;49.30;99097.81;2075756;28;19948;-48
2022/06/20 03:37:41;;;;;;;;;;;;;;;26.92;49.35;99106.94;2080135;28;19920;-49
2022/06/20 03:38:44;;;;;;;;;;;;;;;26.90;49.21;99100.81;2068632;28;20603;-46
2022/06/20 03:39:45;;;;;;;;;;;;;;;26.90;49.36;99106.34;2074330;28;19912;-49
2022/06/20 03:40:46;;;;;;;;;;;;;;;26.91;49.50;99108.84;2072263;28;19928;-46
2022/06/20 03:41:47;;;;;;;;;;;;;;;26.90;49.55;99111.88;2076430;28;19924;-47
2022/06/20 03:42:47;;;;;;;;;;;;;;;26.89;49.31;99111.00;2072017;28;19983;-46
2022/06/20 03:44:00;;;;;;;;;;;;;;;26.89;49.35;99111.00;2076594;28;19917;-46
2022/06/20 03:45:02;;;;;;;;;;;;;;;26.90;49.44;99106.34;2072533;28;19999;-46
2022/06/20 03:46:06;;;;;;;;;;;;;;;26.89;49.56;99111.00;2075112;28;20345;-47
2022/06/20 03:47:09;;;;;;;;;;;;;;;26.89;49.58;99111.00;2078244;28;20416;-46
2022/06/20 03:48:18;;;;;;;;;;;;;;;26.90;49.55;99118.25;2074089;28;19917;-46
2022/06/20 03:49:25;;;;;;;;;;;;;;;26.90;49.65;99118.25;2074543;28;20422;-48
2022/06/20 03:50:30;;;;;;;;;;;;;;;26.90;49.51;99117.41;2085014;28;20270;-46
2022/06/20 03:51:45;;;;;;;;;;;;;;;26.88;49.47;99120.38;2077238;28;20150;-47
2022/06/20 03:52:50;;;;;;;;;;;;;;;26.89;49.54;99121.22;2068551;28;20236;-46
2022/06/20 03:53:54;;;;;;;;;;;;;;;26.89;49.55;99116.53;2064460;28;19913;-47
2022/06/20 03:54:59;;;;;;;;;;;;;;;26.88;49.59;99120.38;2078204;28;20007;-47
2022/06/20 03:56:12;;;;;;;;;;;;;;;26.90;49.80;99122.94;2075510;28;20354;-47
2022/06/20 03:57:20;;;;;;;;;;;;;;;26.89;49.62;99124.81;2077848;28;19916;-46
2022/06/20 03:58:23;;;;;;;;;;;;;;;26.89;49.51;99133.13;2069834;28;19921;-45
2022/06/20 03:59:49;;;;;;;;;;;;;;;26.89;49.58;99138.66;2074620;28;20195;-45
2022/06/20 04:00:56;;;;;;;;;;;;;;;26.88;49.74;99125.91;2070449;28;19917;-46
2022/06/20 04:02:03;;;;;;;;;;;;;;;26.89;49.83;99129.50;2075245;28;21255;-47
2022/06/20 04:03:14;;;;;;;;;;;;;;;26.89;49.51;99132.28;2068390;28;20204;-46
2022/06/20 04:04:23;;;;;;;;;;;;;;;26.88;49.57;99136.97;2075515;28;19918;-46
2022/06/20 04:05:29;;;;;;;;;;;;;;;26.89;49.56;99137.81;2076191;28;19928;-47
2022/06/20 04:06:32;;;;;;;;;;;;;;;26.88;49.64;99136.97;2077144;28;19919;-46
2022/06/20 04:07:53;;;;;;;;;;;;;;;26.88;49.66;99136.97;2074804;28;19921;-47
2022/06/20 04:11:42;;;;;;;;;;;;;;;26.88;49.71;99148.03;2073624;28;20355;-46
2022/06/20 04:12:47;;;;;;;;;;;;;;;26.88;49.43;99145.25;2076784;28;20097;-49
2022/06/20 04:13:47;;;;;;;;;;;;;;;26.87;49.46;99140.78;2074875;28;19925;-45
2022/06/20 04:14:55;;;;;;;;;;;;;;;26.86;49.44;99141.88;2077200;28;19921;-47
2022/06/20 04:16:07;;;;;;;;;;;;;;;26.85;49.78;99140.19;2075312;28;19916;-46
2022/06/20 04:19:01;;;;;;;;;;;;;;;26.86;49.81;99144.63;2075604;28;20014;-49
2022/06/20 04:20:04;;;;;;;;;;;;;;;26.86;49.83;99144.63;2079476;28;19921;-47
2022/06/20 04:21:07;;;;;;;;;;;;;;;26.84;49.53;99135.72;2070814;28;19917;-46
2022/06/20 04:22:11;;;;;;;;;;;;;;;26.85;49.63;99137.44;2079904;28;19916;-47
2022/06/20 04:23:14;;;;;;;;;;;;;;;26.85;49.59;99133.78;2078149;28;19917;-46
2022/06/20 04:24:22;;;;;;;;;;;;;;;26.85;49.60;99136.56;2085562;28;19916;-46
2022/06/20 04:25:26;;;;;;;;;;;;;;;26.85;49.65;99134.66;2080217;28;20315;-47
2022/06/20 04:26:40;;;;;;;;;;;;;;;26.86;49.67;99144.63;2080594;28;19916;-47
2022/06/20 04:27:51;;;;;;;;;;;;;;;26.85;49.81;99133.78;2075321;28;19909;-46
2022/06/20 04:28:51;;;;;;;;;;;;;;;26.85;49.90;99134.66;2074911;28;19916;-49
2022/06/20 04:29:58;;;;;;;;;;;;;;;26.85;49.85;99134.66;2077439;28;19917;-46
2022/06/20 04:31:03;;;;;;;;;;;;;;;26.84;49.69;99135.72;2073765;28;19952;-45
2022/06/20 04:32:03;;;;;;;;;;;;;;;26.84;49.61;99146.78;2074422;28;19924;-46
2022/06/20 04:33:15;;;;;;;;;;;;;;;26.85;49.75;99139.31;2076276;28;20767;-46
2022/06/20 04:34:26;;;;;;;;;;;;;;;26.85;49.95;99137.44;2080159;28;20015;-46
2022/06/20 04:35:29;;;;;;;;;;;;;;;26.84;49.71;99135.72;2075567;28;19934;-48
2022/06/20 04:36:29;;;;;;;;;;;;;;;26.85;49.95;99131.91;2069837;28;19917;-47
2022/06/20 04:37:41;;;;;;;;;;;;;;;26.83;49.71;99136.78;2077075;28;19958;-46
2022/06/20 04:38:45;;;;;;;;;;;;;;;26.85;49.68;99131.03;2075770;28;19916;-49
2022/06/20 04:39:55;;;;;;;;;;;;;;;26.84;49.89;99132.94;2077168;28;20003;-46
2022/06/20 04:40:59;;;;;;;;;;;;;;;26.84;49.81;99132.94;2077325;28;19916;-46
2022/06/20 04:42:12;;;;;;;;;;;;;;;26.84;49.62;99130.19;2069612;28;19929;-47
2022/06/20 04:43:31;;;;;;;;;;;;;;;26.84;49.61;99132.94;2078806;28;19916;-46
2022/06/20 04:44:37;;;;;;;;;;;;;;;26.84;49.98;99135.72;2069543;28;19917;-46
2022/06/20 04:45:40;;;;;;;;;;;;;;;26.83;49.65;99134.03;2069919;28;19924;-47
2022/06/20 04:47:04;;;;;;;;;;;;;;;26.84;49.64;99138.47;2080581;28;20384;-47
2022/06/20 04:48:10;;;;;;;;;;;;;;;26.84;49.81;99132.94;2061740;28;20298;-46
2022/06/20 04:49:15;;;;;;;;;;;;;;;26.84;50.00;99132.94;2077419;28;19925;-46
2022/06/20 04:50:17;;;;;;;;;;;;;;;26.83;49.80;99133.19;2066727;28;20275;-46
2022/06/20 04:51:19;;;;;;;;;;;;;;;26.84;49.88;99132.94;2075926;28;20555;-46
2022/06/20 04:52:23;;;;;;;;;;;;;;;26.83;49.65;99139.56;2069793;28;20355;-46
2022/06/20 04:53:25;;;;;;;;;;;;;;;26.82;49.72;99137.84;2075710;28;19917;-47
2022/06/20 04:54:25;;;;;;;;;;;;;;;26.82;49.62;99137.84;2076683;28;19917;-49
2022/06/20 04:55:27;;;;;;;;;;;;;;;26.82;49.97;99131.47;2078155;28;20591;-46
2022/06/20 04:56:27;;;;;;;;;;;;;;;26.82;49.73;99134.25;2078664;28;20337;-49
2022/06/20 04:57:29;;;;;;;;;;;;;;;26.81;50.02;99129.78;2075732;28;20008;-46
2022/06/20 04:58:34;;;;;;;;;;;;;;;26.82;49.69;99134.25;2075832;28;19924;-46
2022/06/20 04:59:34;;;;;;;;;;;;;;;26.81;49.75;99141.69;2075342;28;20252;-46
2022/06/20 05:00:39;;;;;;;;;;;;;;;26.82;50.05;99129.56;2073796;28;19928;-46
2022/06/20 05:01:40;;;;;;;;;;;;;;;26.81;49.94;99138.94;2077246;28;20239;-47
2022/06/20 05:02:40;;;;;;;;;;;;;;;26.80;49.73;99145.53;2075854;28;19917;-46
2022/06/20 05:03:48;;;;;;;;;;;;;;;26.81;50.01;99147.22;2074617;28;20274;-45
2022/06/20 05:04:51;;;;;;;;;;;;;;;26.81;49.78;99138.94;2070078;28;19913;-45
2022/06/20 05:05:53;;;;;;;;;;;;;;;26.80;49.76;99142.78;2072649;28;19917;-46
2022/06/20 05:06:55;;;;;;;;;;;;;;;26.81;49.78;99149.16;2075460;28;20002;-46
2022/06/20 05:07:56;;;;;;;;;;;;;;;26.81;50.06;99147.22;2077249;28;20230;-46
2022/06/20 05:09:06;;;;;;;;;;;;;;;26.81;49.85;99152.75;2074234;28;19959;-46
2022/06/20 05:10:06;;;;;;;;;;;;;;;26.81;50.09;99141.69;2071108;28;19921;-46
2022/06/20 05:11:10;;;;;;;;;;;;;;;26.81;50.15;99140.84;2076230;28;19921;-46
2022/06/20 05:12:16;;;;;;;;;;;;;;;26.80;49.91;99142.78;2075402;28;19913;-46
2022/06/20 05:13:19;;;;;;;;;;;;;;;26.81;49.84;99147.22;2076776;28;20297;-53
2022/06/20 05:14:23;;;;;;;;;;;;;;;26.81;49.83;99136.16;2076662;28;19916;-46
2022/06/20 05:15:33;;;;;;;;;;;;;;;26.80;50.09;99151.06;2072868;28;19986;-48
2022/06/20 05:16:37;;;;;;;;;;;;;;;26.81;49.78;99143.63;2075586;28;19925;-47
2022/06/20 05:17:38;;;;;;;;;;;;;;;26.82;50.13;99148.91;2074062;28;19920;-46
2022/06/20 05:18:43;;;;;;;;;;;;;;;26.81;49.84;99140.84;2075372;28;19994;-46
2022/06/20 05:19:46;;;;;;;;;;;;;;;26.81;50.16;99147.22;2077409;28;20309;-50
2022/06/20 05:20:47;;;;;;;;;;;;;;;26.80;49.87;99142.78;2075136;28;20880;-46
2022/06/20 05:21:50;;;;;;;;;;;;;;;26.80;49.79;99140.03;2073797;28;20476;-46
2022/06/20 05:22:54;;;;;;;;;;;;;;;26.80;49.93;99145.53;2072134;28;20415;-47
2022/06/20 05:23:57;;;;;;;;;;;;;;;26.81;50.23;99155.53;2071023;28;19917;-46
2022/06/20 05:24:58;;;;;;;;;;;;;;;26.80;50.25;99151.06;2070387;28;19939;-45
2022/06/20 05:26:00;;;;;;;;;;;;;;;26.80;50.11;99144.69;2070818;28;19992;-46
2022/06/20 05:27:06;;;;;;;;;;;;;;;26.79;50.31;99143.84;2073999;28;20323;-47
2022/06/20 05:28:12;;;;;;;;;;;;;;;26.80;50.23;99145.53;2070827;28;19920;-46
2022/06/20 05:29:21;;;;;;;;;;;;;;;26.80;49.91;99144.69;2072261;28;19916;-46
2022/06/20 05:30:23;;;;;;;;;;;;;;;26.79;49.81;99146.59;2070799;28;20373;-46
2022/06/20 05:31:34;;;;;;;;;;;;;;;26.79;50.15;99148.53;2068165;28;20399;-48
2022/06/20 05:32:38;;;;;;;;;;;;;;;26.78;50.15;99144.91;2073568;28;20236;-47
2022/06/20 05:33:38;;;;;;;;;;;;;;;26.78;50.16;99147.69;2073911;28;19916;-46
2022/06/20 05:34:45;;;;;;;;;;;;;;;26.78;49.83;99139.38;2071571;28;19970;-47
2022/06/20 05:35:48;;;;;;;;;;;;;;;26.77;50.19;99145.97;2071176;28;20310;-47
2022/06/20 05:36:55;;;;;;;;;;;;;;;26.76;50.20;99138.75;2070527;28;20176;-50
2022/06/20 05:38:19;;;;;;;;;;;;;;;26.77;50.34;99140.44;2073105;28;19951;-45
2022/06/20 05:39:23;;;;;;;;;;;;;;;26.76;50.20;99138.75;2057482;28;19954;-47
2022/06/20 05:40:28;;;;;;;;;;;;;;;26.76;50.08;99141.53;2075223;28;19912;-45
2022/06/20 05:41:29;;;;;;;;;;;;;;;26.76;50.28;99144.28;2071781;28;19921;-47
2022/06/20 05:42:29;;;;;;;;;;;;;;;26.75;50.24;99131.50;2073860;28;19917;-47